Time;durP1;ratioP1;P1;durP2;ratioP2;P2;SDS_P1;SDS_P2;PMS_P1;PMS_P2;Temp;Humidity;BMP_temperature;BMP_pressure;BME280_temperature;BME280_humidity;BME280_pressure;Samples;Min_cycle;Max_cycle;Signal;HPM_P1;HPM_P2
2021/04/12 00:01:59;;;;;;;7.35;2.97;;;4.20;69.30;;;;;;5094200;28;20058;-71
2021/04/12 00:04:35;;;;;;;4.60;2.50;;;4.20;69.30;;;;;;5092715;28;20069;-72
2021/04/12 00:07:09;;;;;;;7.07;2.50;;;4.20;69.50;;;;;;5075426;28;20093;-71
2021/04/12 00:09:43;;;;;;;6.47;2.72;;;4.20;69.60;;;;;;5093024;28;20044;-72
2021/04/12 00:12:24;;;;;;;5.78;2.20;;;4.20;69.50;;;;;;5092277;28;20056;-72
2021/04/12 00:14:58;;;;;;;5.90;2.10;;;4.20;69.60;;;;;;5090517;28;20063;-71
2021/04/12 00:17:25;;;;;;;9.20;2.80;;;4.20;69.60;;;;;;5057677;28;20079;-71
2021/04/12 00:20:15;;;;;;;4.85;2.10;;;4.20;70.60;;;;;;5090491;28;20048;-71
2021/04/12 00:23:03;;;;;;;6.05;2.42;;;4.20;69.90;;;;;;5091626;28;20491;-73
2021/04/12 00:25:41;;;;;;;4.85;1.95;;;4.20;69.90;;;;;;5092314;28;20040;-73
2021/04/12 00:28:15;;;;;;;5.82;2.10;;;4.20;70.00;;;;;;5075866;28;20036;-73
2021/04/12 00:30:56;;;;;;;8.65;2.92;;;4.10;69.80;;;;;;5091806;28;20044;-73
2021/04/12 00:33:49;;;;;;;4.40;2.20;;;4.10;69.70;;;;;;5091005;28;20041;-71
2021/04/12 00:36:33;;;;;;;5.28;2.10;;;4.10;70.00;;;;;;5093388;28;20109;-73
2021/04/12 00:39:04;;;;;;;5.55;1.95;;;4.10;70.10;;;;;;5110171;28;20127;-73
2021/04/12 00:42:08;;;;;;;6.97;2.17;;;4.10;70.00;;;;;;5093137;28;20115;-73
2021/04/12 00:44:56;;;;;;;3.08;1.55;;;4.10;70.20;;;;;;5092740;28;20044;-73
2021/04/12 00:47:57;;;;;;;3.80;2.10;;;4.10;70.10;;;;;;5096318;28;20040;-73
2021/04/12 00:51:04;;;;;;;7.18;2.65;;;4.10;70.20;;;;;;5067607;28;20056;-72
2021/04/12 00:53:40;;;;;;;4.60;2.50;;;4.10;70.40;;;;;;5021243;28;20131;-73
2021/04/12 00:56:10;;;;;;;4.78;1.90;;;4.00;70.30;;;;;;5073965;28;20117;-72
2021/04/12 00:58:51;;;;;;;3.83;2.00;;;4.00;70.30;;;;;;5095664;28;20093;-72
2021/04/12 01:01:43;;;;;;;5.97;2.58;;;4.00;70.30;;;;;;5080657;28;20045;-72
2021/04/12 01:04:15;;;;;;;5.22;2.00;;;4.00;70.70;;;;;;5081154;28;20107;-72
2021/04/12 01:07:02;;;;;;;5.90;2.10;;;4.00;70.40;;;;;;5095291;28;20415;-72
2021/04/12 01:09:59;;;;;;;4.82;2.33;;;4.00;70.50;;;;;;5095030;28;20602;-72
2021/04/12 01:12:58;;;;;;;4.63;2.08;;;4.00;70.90;;;;;;5096365;28;20079;-73
2021/04/12 01:15:53;;;;;;;3.33;1.90;;;4.00;70.90;;;;;;5097541;28;20123;-73
2021/04/12 01:18:37;;;;;;;4.03;2.08;;;3.90;71.00;;;;;;5097523;28;20097;-73
2021/04/12 01:21:11;;;;;;;4.47;2.70;;;3.90;70.70;;;;;;5095078;28;20118;-73
2021/04/12 01:23:46;;;;;;;8.73;2.70;;;3.90;70.60;;;;;;5091778;28;20578;-73
2021/04/12 01:26:42;;;;;;;6.68;2.35;;;3.90;70.80;;;;;;5095147;28;20044;-73
2021/04/12 01:29:26;;;;;;;4.78;2.58;;;3.90;71.00;;;;;;5078404;28;20074;-72
2021/04/12 01:32:13;;;;;;;6.43;3.28;;;3.90;70.80;;;;;;5094799;28;20036;-73
2021/04/12 01:35:09;;;;;;;5.35;2.25;;;3.80;70.90;;;;;;5096106;28;20119;-72
2021/04/12 01:38:01;;;;;;;5.18;2.70;;;3.80;71.30;;;;;;5094877;28;20054;-73
2021/04/12 01:40:27;;;;;;;4.22;3.03;;;3.80;71.00;;;;;;5095479;28;20044;-72
2021/04/12 01:43:08;;;;;;;3.90;2.25;;;3.80;70.90;;;;;;5091932;28;20064;-73
2021/04/12 01:45:48;;;;;;;4.70;2.40;;;3.80;71.00;;;;;;5092671;28;20115;-73
2021/04/12 01:48:38;;;;;;;4.55;2.20;;;3.70;71.10;;;;;;5092384;28;20130;-73
2021/04/12 01:51:29;;;;;;;4.63;2.38;;;3.80;71.10;;;;;;5079307;28;20044;-73
2021/04/12 01:54:12;;;;;;;5.55;2.40;;;3.80;71.30;;;;;;5094203;28;20058;-73
2021/04/12 01:56:38;;;;;;;4.35;2.20;;;3.80;71.10;;;;;;5094347;28;20048;-74
2021/04/12 01:59:16;;;;;;;5.35;2.28;;;3.80;71.20;;;;;;5095834;28;20361;-72
2021/04/12 02:01:48;;;;;;;5.05;2.35;;;3.70;71.20;;;;;;5095258;28;20036;-73
2021/04/12 02:04:30;;;;;;;5.75;2.90;;;3.80;71.50;;;;;;5096489;28;20063;-72
2021/04/12 02:07:17;;;;;;;6.63;2.65;;;3.80;71.50;;;;;;5093243;28;20119;-73
2021/04/12 02:10:06;;;;;;;3.63;2.22;;;3.80;71.40;;;;;;5091411;28;20054;-73
2021/04/12 02:12:59;;;;;;;5.65;2.28;;;3.70;71.50;;;;;;5074901;28;20032;-72
2021/04/12 02:15:50;;;;;;;4.40;2.25;;;3.70;71.50;;;;;;5077692;28;20485;-72
2021/04/12 02:18:36;;;;;;;4.10;2.65;;;3.70;71.50;;;;;;5092574;28;20123;-73
2021/04/12 02:21:17;;;;;;;4.30;2.22;;;3.70;71.80;;;;;;5092257;28;20040;-73
2021/04/12 02:23:47;;;;;;;5.32;2.20;;;3.70;71.60;;;;;;5090788;28;20482;-73
2021/04/12 02:26:35;;;;;;;4.75;2.38;;;3.70;71.50;;;;;;5075275;28;20052;-72
2021/04/12 02:29:13;;;;;;;6.97;2.58;;;3.70;71.60;;;;;;5090837;28;20044;-72
2021/04/12 02:31:44;;;;;;;4.18;2.42;;;3.70;71.90;;;;;;5092489;28;20071;-72
2021/04/12 02:34:17;;;;;;;3.92;1.90;;;3.70;71.90;;;;;;5091339;28;20043;-73
2021/04/12 02:37:05;;;;;;;5.68;2.38;;;3.60;71.90;;;;;;5075065;28;20456;-73
2021/04/12 02:40:06;;;;;;;3.22;2.28;;;3.60;72.20;;;;;;5072477;28;20044;-73
2021/04/12 02:42:51;;;;;;;7.18;2.08;;;3.60;71.90;;;;;;5071359;28;20052;-72
2021/04/12 02:45:51;;;;;;;3.97;2.20;;;3.70;72.20;;;;;;5071054;28;20130;-72
2021/04/12 02:48:53;;;;;;;4.90;2.00;;;3.60;72.10;;;;;;5072198;28;20051;-72
2021/04/12 02:51:31;;;;;;;5.38;2.20;;;3.60;72.30;;;;;;5071029;28;20186;-72
2021/04/12 02:54:22;;;;;;;5.70;2.25;;;3.60;72.10;;;;;;5070036;28;20112;-72
2021/04/12 02:57:14;;;;;;;3.95;2.08;;;3.60;72.10;;;;;;5070045;28;20048;-73
2021/04/12 02:59:52;;;;;;;2.92;1.70;;;3.60;72.30;;;;;;5069111;28;20060;-73
2021/04/12 03:02:33;;;;;;;5.05;2.25;;;3.60;72.30;;;;;;5070682;28;20393;-72
2021/04/12 03:05:14;;;;;;;3.88;1.90;;;3.60;72.20;;;;;;5070058;28;20396;-74
2021/04/12 03:08:42;;;;;;;4.38;2.15;;;3.60;72.40;;;;;;5053092;28;20146;-73
2021/04/12 03:11:16;;;;;;;6.30;2.08;;;3.60;72.40;;;;;;5006146;28;20128;-72
2021/04/12 03:14:17;;;;;;;3.33;1.75;;;3.60;72.40;;;;;;5075155;28;20433;-73
2021/04/12 03:17:20;;;;;;;5.13;1.83;;;3.60;72.40;;;;;;5070502;28;20101;-73
2021/04/12 03:19:57;;;;;;;5.50;2.42;;;3.60;72.50;;;;;;5071508;28;20199;-73
2021/04/12 03:22:28;;;;;;;3.22;2.00;;;3.60;72.40;;;;;;5054588;28;20052;-72
2021/04/12 03:25:21;;;;;;;4.55;2.30;;;3.60;72.50;;;;;;5052979;28;20072;-72
2021/04/12 03:28:02;;;;;;;6.45;2.22;;;3.60;72.50;;;;;;5069939;28;20159;-73
2021/04/12 03:30:56;;;;;;;5.68;2.10;;;3.60;72.60;;;;;;5071076;28;20515;-72
2021/04/12 03:33:43;;;;;;;4.22;1.85;;;3.50;72.60;;;;;;5072829;28;20485;-72
2021/04/12 03:36:27;;;;;;;5.22;1.92;;;3.60;72.40;;;;;;5073228;28;20040;-72
2021/04/12 03:39:19;;;;;;;2.78;1.63;;;3.50;72.30;;;;;;5073364;28;20049;-72
2021/04/12 03:41:58;;;;;;;4.30;1.63;;;3.50;72.60;;;;;;5072772;28;20044;-72
2021/04/12 03:44:37;;;;;;;3.05;1.80;;;3.50;72.60;;;;;;5055978;28;20283;-72
2021/04/12 03:47:11;;;;;;;3.78;1.70;;;3.50;72.70;;;;;;5073466;28;20044;-72
2021/04/12 03:49:59;;;;;;;5.57;2.20;;;3.50;72.60;;;;;;5074815;28;20091;-72
2021/04/12 03:53:00;;;;;;;3.67;2.03;;;3.50;72.70;;;;;;5074949;28;20473;-71
2021/04/12 03:55:37;;;;;;;3.97;2.03;;;3.50;72.60;;;;;;5075134;28;20076;-71
2021/04/12 03:58:31;;;;;;;3.00;1.80;;;3.50;72.60;;;;;;5073231;28;20059;-71
2021/04/12 04:01:15;;;;;;;2.85;1.65;;;3.50;72.80;;;;;;5073325;28;20048;-72
2021/04/12 04:03:41;;;;;;;5.50;2.17;;;3.50;72.90;;;;;;5073605;28;20052;-72
2021/04/12 04:06:12;;;;;;;3.75;1.90;;;3.50;72.80;;;;;;5074085;28;20041;-72
2021/04/12 04:08:57;;;;;;;3.10;1.88;;;3.50;72.80;;;;;;5073719;28;20070;-72
2021/04/12 04:11:25;;;;;;;3.00;1.80;;;3.50;73.10;;;;;;5072479;28;20474;-71
2021/04/12 04:14:45;;;;;;;3.78;2.20;;;3.50;72.90;;;;;;5073761;28;20052;-73
2021/04/12 04:17:44;;;;;;;4.47;1.88;;;3.50;73.20;;;;;;5034942;28;20147;-72
2021/04/12 04:20:13;;;;;;;3.88;1.70;;;3.40;73.00;;;;;;5034088;28;20139;-71
2021/04/12 04:23:00;;;;;;;4.55;2.00;;;3.40;73.00;;;;;;5067743;28;20056;-73
2021/04/12 04:25:55;;;;;;;3.05;1.50;;;3.40;73.10;;;;;;5072403;28;20123;-72
2021/04/12 04:28:40;;;;;;;5.55;2.22;;;3.40;73.40;;;;;;5035924;28;20063;-71
2021/04/12 04:31:27;;;;;;;4.25;1.80;;;3.40;73.10;;;;;;5070866;28;20048;-70
2021/04/12 04:34:10;;;;;;;2.45;2.08;;;3.40;73.20;;;;;;5073072;28;20044;-72
2021/04/12 04:36:55;;;;;;;3.08;2.10;;;3.40;73.20;;;;;;5073417;28;20401;-72
2021/04/12 04:39:36;;;;;;;2.50;1.75;;;3.40;73.20;;;;;;5055464;28;20052;-71
2021/04/12 04:42:28;;;;;;;3.88;1.67;;;3.50;73.30;;;;;;5072189;28;20054;-73
2021/04/12 04:45:09;;;;;;;4.23;2.00;;;3.40;73.20;;;;;;5055612;28;20414;-72
2021/04/12 04:47:53;;;;;;;2.90;1.63;;;3.40;73.20;;;;;;5056575;28;20393;-71
2021/04/12 04:51:02;;;;;;;4.13;1.90;;;3.40;73.20;;;;;;5074026;28;20537;-72
2021/04/12 04:53:37;;;;;;;4.95;2.17;;;3.40;73.40;;;;;;5056549;28;20063;-72
2021/04/12 04:56:23;;;;;;;6.35;2.50;;;3.40;73.30;;;;;;5073457;28;20092;-73
2021/04/12 04:59:00;;;;;;;4.07;2.13;;;3.40;73.50;;;;;;5073009;28;20074;-73
2021/04/12 05:01:40;;;;;;;3.50;2.15;;;3.40;73.50;;;;;;5076234;28;20054;-71
2021/04/12 05:04:27;;;;;;;4.03;2.38;;;3.40;73.30;;;;;;5057708;28;20130;-73
2021/04/12 05:07:18;;;;;;;4.05;2.15;;;3.40;73.50;;;;;;5093648;28;20055;-71
2021/04/12 05:10:08;;;;;;;4.68;2.10;;;3.40;73.40;;;;;;5092274;28;20047;-72
2021/04/12 05:12:56;;;;;;;5.95;2.75;;;3.40;73.30;;;;;;5074351;28;20036;-72
2021/04/12 05:15:37;;;;;;;3.83;2.60;;;3.40;73.40;;;;;;5099124;28;20059;-72
2021/04/12 05:18:25;;;;;;;5.88;2.55;;;3.40;73.40;;;;;;5093176;28;20429;-72
2021/04/12 05:21:16;;;;;;;6.32;3.28;;;3.40;73.50;;;;;;5090583;28;20028;-72
2021/04/12 05:23:53;;;;;;;3.70;2.47;;;3.40;73.30;;;;;;5124863;28;20096;-72
2021/04/12 05:26:29;;;;;;;5.53;2.38;;;3.40;73.30;;;;;;5070261;28;20571;-71
2021/04/12 05:29:29;;;;;;;5.47;2.55;;;3.40;73.40;;;;;;5073727;28;20056;-71
2021/04/12 05:32:08;;;;;;;4.53;2.10;;;3.40;73.50;;;;;;5089836;28;20131;-68
2021/04/12 05:35:03;;;;;;;3.78;2.58;;;3.40;73.50;;;;;;5073143;28;20044;-68
2021/04/12 05:37:35;;;;;;;6.55;2.63;;;3.60;78.70;;;;;;5059612;28;20189;-68
2021/04/12 05:40:25;;;;;;;7.57;2.10;;;3.80;75.60;;;;;;5082867;28;20042;-73
2021/04/12 05:43:30;;;;;;;7.90;2.88;;;4.20;77.00;;;;;;5091725;28;20036;-68
2021/04/12 05:46:22;;;;;;;4.32;2.63;;;4.20;73.90;;;;;;5066342;28;20052;-72
2021/04/12 05:48:58;;;;;;;5.78;2.92;;;4.10;73.40;;;;;;5137391;27;20063;-71
2021/04/12 05:51:37;;;;;;;7.20;3.08;;;4.10;73.90;;;;;;5127688;27;20486;-73
2021/04/12 05:54:31;;;;;;;5.82;2.70;;;4.10;73.30;;;;;;5093384;28;20050;-76
2021/04/12 05:57:06;;;;;;;6.60;2.30;;;4.00;73.40;;;;;;5096462;28;20044;-72
2021/04/12 05:59:44;;;;;;;5.57;3.05;;;4.00;73.50;;;;;;5096792;28;20048;-74
2021/04/12 06:02:56;;;;;;;7.22;2.47;;;3.90;73.60;;;;;;5091995;28;20110;-74
2021/04/12 06:05:40;;;;;;;4.63;2.83;;;3.90;73.60;;;;;;5061995;28;20037;-74
2021/04/12 06:08:43;;;;;;;5.60;2.45;;;3.90;73.90;;;;;;5035154;28;20192;-69
2021/04/12 06:11:46;;;;;;;4.35;2.50;;;3.80;74.10;;;;;;5088760;28;20040;-72
2021/04/12 06:14:30;;;;;;;;;;;3.80;74.20;;;;;;5108610;28;20040;-74
2021/04/12 06:17:27;;;;;;;5.75;2.17;;;3.80;74.70;;;;;;5093952;28;19920;-69
2021/04/12 06:20:06;;;;;;;5.10;1.95;;;4.30;78.60;;;;;;5064154;28;20438;-72
2021/04/12 06:23:19;;;;;;;4.40;2.30;;;4.40;75.40;;;;;;5094804;28;20053;-72
2021/04/12 06:26:07;;;;;;;4.20;2.03;;;4.40;74.30;;;;;;5017901;28;20073;-72
2021/04/12 06:28:38;;;;;;;5.18;2.20;;;4.30;74.20;;;;;;5034140;28;20056;-73
2021/04/12 06:31:29;;;;;;;4.15;2.28;;;4.30;74.10;;;;;;5067446;28;20102;-72
2021/04/12 06:34:03;;;;;;;4.50;2.05;;;4.20;74.10;;;;;;5095448;28;20071;-73
2021/04/12 06:36:56;;;;;;;5.30;2.30;;;4.20;74.10;;;;;;5094633;28;20627;-71
2021/04/12 06:39:54;;;;;;;3.38;2.10;;;4.20;74.30;;;;;;5097838;28;20066;-72
2021/04/12 06:42:29;;;;;;;8.32;2.22;;;4.10;74.60;;;;;;5066704;28;20066;-74
2021/04/12 06:45:22;;;;;;;4.20;2.05;;;4.20;74.40;;;;;;5095371;28;20052;-72
2021/04/12 06:48:29;;;;;;;3.92;1.95;;;4.20;74.70;;;;;;5096310;28;20040;-71
2021/04/12 06:51:43;;;;;;;3.55;1.90;;;4.20;74.50;;;;;;5050601;28;20077;-73
2021/04/12 06:54:24;;;;;;;3.88;2.10;;;4.20;74.70;;;;;;5068525;28;20063;-73
2021/04/12 06:57:24;;;;;;;4.63;2.33;;;4.20;74.60;;;;;;5094888;28;20492;-73
2021/04/12 07:00:08;;;;;;;5.63;2.00;;;4.20;75.00;;;;;;5096018;28;20040;-72
2021/04/12 07:03:08;;;;;;;3.60;2.00;;;4.30;75.10;;;;;;5094241;28;20127;-72
2021/04/12 07:05:42;;;;;;;4.43;2.40;;;4.30;75.10;;;;;;5094026;28;20048;-72
2021/04/12 07:08:11;;;;;;;3.53;1.90;;;4.30;75.00;;;;;;5095959;28;20040;-72
2021/04/12 07:10:55;;;;;;;5.35;2.72;;;4.30;74.90;;;;;;5094398;28;20353;-72
2021/04/12 07:13:26;;;;;;;4.95;3.10;;;4.40;75.00;;;;;;5093928;28;20161;-72
2021/04/12 07:16:04;;;;;;;5.57;2.17;;;4.40;75.10;;;;;;5094468;28;20054;-72
2021/04/12 07:18:53;;;;;;;4.50;2.47;;;4.40;76.10;;;;;;5097668;28;20052;-73
2021/04/12 07:21:44;;;;;;;5.95;2.50;;;4.40;75.50;;;;;;5082880;28;20039;-71
2021/04/12 07:24:28;;;;;;;4.20;2.38;;;4.50;75.50;;;;;;5094818;28;20050;-73
2021/04/12 07:27:31;;;;;;;5.63;2.38;;;4.50;75.40;;;;;;5092039;28;20141;-73
2021/04/12 07:29:57;;;;;;;;;;;4.50;75.50;;;;;;5093745;28;20040;-73
2021/04/12 07:32:49;;;;;;;8.18;2.65;;;4.60;76.20;;;;;;5094204;28;20257;-73
2021/04/12 07:35:34;;;;;;;5.90;2.10;;;4.60;75.30;;;;;;5094547;28;20052;-73
2021/04/12 07:38:04;;;;;;;5.90;2.88;;;4.60;75.10;;;;;;5096780;28;20081;-72
2021/04/12 07:41:01;;;;;;;9.52;2.15;;;4.70;75.20;;;;;;5094644;28;20126;-73
2021/04/12 07:43:49;;;;;;;7.20;1.85;;;4.70;75.10;;;;;;5078061;28;20081;-72
2021/04/12 07:46:46;;;;;;;4.20;2.30;;;4.70;75.00;;;;;;5075283;28;20050;-73
2021/04/12 07:49:54;;;;;;;5.25;2.13;;;4.80;75.10;;;;;;5092369;28;20036;-73
2021/04/12 07:52:57;;;;;;;2.88;1.90;;;4.80;75.00;;;;;;5075659;28;20125;-74
2021/04/12 07:55:26;;;;;;;4.97;2.08;;;4.80;74.90;;;;;;5088634;28;20047;-73
2021/04/12 07:58:04;;;;;;;5.18;2.30;;;4.80;74.70;;;;;;5094114;28;20044;-73
2021/04/12 08:01:04;;;;;;;5.95;2.03;;;4.90;74.80;;;;;;5073931;28;20054;-74
2021/04/12 08:04:20;;;;;;;5.78;1.90;;;4.90;74.90;;;;;;5092757;28;20153;-73
2021/04/12 08:07:22;;;;;;;4.97;1.88;;;5.00;74.80;;;;;;4997721;28;20084;-72
2021/04/12 08:10:29;;;;;;;6.53;1.15;;;5.10;74.60;;;;;;5092151;28;20036;-72
2021/04/12 08:13:21;;;;;;;2.75;0.73;;;5.10;73.40;;;;;;5052656;28;20048;-74
2021/04/12 08:15:52;;;;;;;3.13;1.08;;;5.20;72.60;;;;;;5054059;28;20075;-72
2021/04/12 08:18:33;;;;;;;4.57;0.95;;;5.20;72.40;;;;;;5092879;28;20036;-74
2021/04/12 08:21:04;;;;;;;3.78;1.00;;;5.20;71.40;;;;;;5091428;28;20055;-73
2021/04/12 08:23:54;;;;;;;5.90;1.05;;;5.20;71.50;;;;;;5090800;28;20093;-73
2021/04/12 08:26:45;;;;;;;4.50;1.20;;;5.30;71.40;;;;;;5090034;28;20044;-74
2021/04/12 08:29:48;;;;;;;4.85;1.17;;;5.30;70.50;;;;;;5089625;28;20067;-72
2021/04/12 08:32:35;;;;;;;2.67;1.00;;;5.40;69.40;;;;;;5089888;28;20044;-72
2021/04/12 08:35:28;;;;;;;4.43;1.20;;;5.40;69.00;;;;;;5090992;28;20113;-72
2021/04/12 08:38:31;;;;;;;3.55;1.30;;;5.50;68.20;;;;;;5091018;28;20138;-72
2021/04/12 08:40:58;;;;;;;;;;;5.50;67.60;;;;;;5091715;28;20040;-71
2021/04/12 08:43:44;;;;;;;4.43;1.30;;;5.60;67.40;;;;;;5090027;28;20038;-73
2021/04/12 08:47:07;;;;;;;6.63;1.10;;;5.70;67.90;;;;;;5091044;28;20476;-72
2021/04/12 08:49:42;;;;;;;2.25;0.90;;;5.80;67.70;;;;;;5090010;28;20051;-72
2021/04/12 08:52:38;;;;;;;2.22;0.90;;;5.90;67.90;;;;;;5090864;28;20491;-73
2021/04/12 08:55:28;;;;;;;2.88;0.70;;;6.00;67.60;;;;;;5089510;28;20052;-74
2021/04/12 08:58:32;;;;;;;3.53;0.80;;;6.10;65.90;;;;;;5090829;28;20451;-73
2021/04/12 09:01:22;;;;;;;3.58;0.90;;;6.20;65.80;;;;;;5090604;28;20127;-72
2021/04/12 09:04:23;;;;;;;4.65;1.05;;;6.30;65.40;;;;;;5090571;28;20426;-72
2021/04/12 09:06:57;;;;;;;4.00;0.88;;;6.40;65.40;;;;;;5068239;28;20500;-73
2021/04/12 09:09:32;;;;;;;4.07;1.10;;;6.50;66.40;;;;;;5076076;28;20449;-73
2021/04/12 09:11:58;;;;;;;2.03;0.65;;;6.50;66.50;;;;;;5094617;28;20118;-72
2021/04/12 09:14:50;;;;;;;2.33;0.88;;;6.60;66.50;;;;;;5092382;28;20551;-73
2021/04/12 09:17:33;;;;;;;4.70;0.80;;;6.60;66.40;;;;;;5078649;28;20040;-72
2021/04/12 09:20:14;;;;;;;2.63;0.90;;;6.70;66.40;;;;;;5093374;28;20538;-73
2021/04/12 09:23:04;;;;;;;3.20;0.70;;;6.70;66.30;;;;;;5093608;28;20046;-73
2021/04/12 09:26:00;;;;;;;8.45;1.08;;;6.70;66.50;;;;;;5092027;28;20489;-73
2021/04/12 09:28:37;;;;;;;6.72;1.00;;;6.80;66.30;;;;;;5092585;28;20040;-73
2021/04/12 09:31:55;;;;;;;2.33;0.50;;;6.80;66.30;;;;;;5092438;28;20048;-72
2021/04/12 09:34:43;;;;;;;3.10;0.90;;;6.90;66.20;;;;;;5038755;28;20132;-73
2021/04/12 09:37:21;;;;;;;5.25;0.90;;;6.90;65.40;;;;;;5092931;28;20122;-72
2021/04/12 09:39:58;;;;;;;1.73;0.50;;;7.00;65.00;;;;;;5091840;28;20048;-72
2021/04/12 09:42:46;;;;;;;2.42;0.70;;;7.10;65.40;;;;;;5092469;28;20095;-74
2021/04/12 09:45:30;;;;;;;3.22;1.10;;;7.10;64.90;;;;;;5092692;28;20054;-73
2021/04/12 09:48:31;;;;;;;1.42;0.60;;;7.20;64.10;;;;;;5075709;28;20059;-73
2021/04/12 09:51:31;;;;;;;4.57;0.70;;;7.20;63.10;;;;;;5092298;28;20043;-73
2021/04/12 09:54:22;;;;;;;4.35;0.70;;;7.30;62.60;;;;;;5075929;28;20403;-73
2021/04/12 09:56:51;;;;;;;5.05;1.10;;;7.40;63.00;;;;;;5074743;28;20048;-73
2021/04/12 09:59:36;;;;;;;4.03;1.00;;;7.50;62.60;;;;;;5092133;28;20032;-72
2021/04/12 10:02:23;;;;;;;4.20;1.02;;;7.50;62.50;;;;;;5093462;28;20074;-73
2021/04/12 10:05:11;;;;;;;3.67;0.85;;;7.50;61.80;;;;;;5092131;28;20048;-71
2021/04/12 10:07:54;;;;;;;2.45;0.82;;;7.60;61.30;;;;;;5092218;28;20062;-73
2021/04/12 10:10:43;;;;;;;;;;;7.60;61.90;;;;;;5075709;28;20067;-72
2021/04/12 10:13:13;;;;;;;3.05;0.80;;;7.70;61.30;;;;;;5087658;28;19959;-72
2021/04/12 10:15:48;;;;;;;1.83;0.88;;;7.80;62.20;;;;;;5087185;28;20060;-73
2021/04/12 10:18:15;;;;;;;3.05;0.63;;;8.00;62.40;;;;;;5074676;28;20032;-73
2021/04/12 10:20:56;;;;;;;3.28;0.70;;;8.40;63.90;;;;;;5069170;28;20051;-71
2021/04/12 10:23:25;;;;;;;4.45;0.80;;;8.90;61.60;;;;;;5052492;28;20130;-73
2021/04/12 10:25:53;;;;;;;5.95;0.73;;;9.00;60.60;;;;;;5105067;28;20052;-74
2021/04/12 10:28:28;;;;;;;3.28;0.90;;;9.20;60.40;;;;;;5088615;28;20122;-73
2021/04/12 10:31:21;;;;;;;2.67;0.63;;;9.30;60.10;;;;;;5136306;27;20065;-72
2021/04/12 10:34:13;;;;;;;3.60;0.77;;;9.30;59.20;;;;;;5072420;28;20192;-74
2021/04/12 10:36:48;;;;;;;4.05;0.60;;;9.40;58.60;;;;;;5071027;28;20048;-73
2021/04/12 10:39:38;;;;;;;3.92;0.70;;;9.40;58.50;;;;;;5090699;28;20127;-74
2021/04/12 10:42:37;;;;;;;4.65;1.00;;;9.40;57.60;;;;;;5091805;28;20072;-73
2021/04/12 10:45:18;;;;;;;5.90;1.00;;;9.50;57.40;;;;;;5115608;27;20048;-72
2021/04/12 10:47:56;;;;;;;3.22;0.90;;;9.60;57.50;;;;;;5068338;28;20151;-72
2021/04/12 10:50:30;;;;;;;4.07;0.70;;;9.60;56.60;;;;;;5073279;28;20435;-73
2021/04/12 10:53:19;;;;;;;3.17;0.50;;;9.60;56.60;;;;;;5088563;28;20571;-75
2021/04/12 10:55:53;;;;;;;4.07;0.93;;;9.70;56.50;;;;;;5090232;28;20040;-72
2021/04/12 10:58:51;;;;;;;1.65;0.60;;;9.70;56.30;;;;;;5097355;28;20044;-74
2021/04/12 11:01:32;;;;;;;1.48;0.60;;;9.80;56.30;;;;;;5103920;28;20131;-74
2021/04/12 11:04:04;;;;;;;2.78;0.80;;;9.90;58.60;;;;;;5083374;28;20043;-72
2021/04/12 11:06:51;;;;;;;1.48;0.50;;;9.90;57.40;;;;;;5085589;28;20181;-70
2021/04/12 11:09:47;;;;;;;1.95;0.63;;;9.90;57.30;;;;;;5086209;28;20043;-71
2021/04/12 11:12:41;;;;;;;4.80;1.10;;;9.80;56.60;;;;;;5087707;28;20084;-72
2021/04/12 11:15:35;;;;;;;3.75;1.10;;;9.70;56.20;;;;;;5068880;28;20122;-72
2021/04/12 11:18:14;;;;;;;4.25;0.70;;;9.60;56.50;;;;;;5073394;28;20047;-72
2021/04/12 11:21:01;;;;;;;3.88;0.90;;;9.40;57.00;;;;;;5063201;28;20052;-74
2021/04/12 11:23:33;;;;;;;1.75;0.73;;;9.20;57.70;;;;;;5089567;28;20055;-72
2021/04/12 11:26:21;;;;;;;2.22;0.93;;;9.10;58.00;;;;;;5086793;28;20040;-71
2021/04/12 11:28:50;;;;;;;2.30;0.63;;;8.90;57.70;;;;;;5088300;28;20032;-71
2021/04/12 11:31:38;;;;;;;2.47;0.80;;;8.80;58.10;;;;;;5090214;28;20039;-71
2021/04/12 11:34:08;;;;;;;3.72;0.82;;;8.70;58.10;;;;;;5087862;28;20470;-71
2021/04/12 11:36:49;;;;;;;7.65;1.58;;;8.70;58.80;;;;;;5084118;28;20052;-71
2021/04/12 11:39:29;;;;;;;4.22;0.70;;;8.80;59.00;;;;;;5077042;28;20040;-71
2021/04/12 11:42:07;;;;;;;2.58;0.75;;;8.80;59.20;;;;;;5088539;28;20036;-71
2021/04/12 11:44:43;;;;;;;4.55;0.80;;;8.80;59.30;;;;;;5089464;28;20148;-71
2021/04/12 11:47:40;;;;;;;3.50;0.93;;;8.90;59.30;;;;;;5074243;28;20101;-70
2021/04/12 11:50:31;;;;;;;1.48;0.80;;;9.00;59.30;;;;;;5091346;28;20377;-70
2021/04/12 11:53:28;;;;;;;3.30;1.25;;;9.20;59.50;;;;;;5082319;28;20045;-70
2021/04/12 11:56:44;;;;;;;2.13;0.93;;;9.40;59.40;;;;;;5089058;28;20055;-71
2021/04/12 11:59:13;;;;;;;4.22;1.00;;;9.90;59.80;;;;;;5077739;28;20056;-71
2021/04/12 12:02:13;;;;;;;3.65;1.48;;;10.30;58.90;;;;;;5071737;28;20041;-72
2021/04/12 12:04:55;;;;;;;2.42;1.20;;;10.70;58.40;;;;;;5054255;28;20060;-70
2021/04/12 12:07:41;;;;;;;3.92;1.27;;;11.10;57.80;;;;;;5090589;28;20044;-73
2021/04/12 12:10:10;;;;;;;5.15;1.85;;;11.60;57.00;;;;;;5091084;28;20066;-70
2021/04/12 12:12:38;;;;;;;3.75;1.20;;;12.00;56.30;;;;;;5090906;28;20127;-69
2021/04/12 12:15:13;;;;;;;2.60;1.20;;;12.30;55.70;;;;;;5088750;28;20040;-69
2021/04/12 12:17:51;;;;;;;1.85;0.88;;;12.70;54.90;;;;;;5084962;28;20090;-70
2021/04/12 12:20:20;;;;;;;3.95;0.75;;;12.70;54.20;;;;;;5088445;28;20070;-68
2021/04/12 12:22:58;;;;;;;2.83;0.90;;;12.60;54.10;;;;;;5088500;28;20036;-73
2021/04/12 12:25:44;;;;;;;2.30;0.63;;;12.40;54.30;;;;;;5122064;28;20044;-70
2021/04/12 12:28:30;;;;;;;3.10;0.70;;;12.50;54.40;;;;;;5104908;28;20040;-70
2021/04/12 12:31:35;;;;;;;3.65;0.88;;;12.60;54.90;;;;;;5083937;28;20067;-69
2021/04/12 12:34:25;;;;;;;1.85;0.60;;;12.60;54.70;;;;;;5073496;28;20044;-69
2021/04/12 12:37:02;;;;;;;1.77;0.68;;;12.80;54.60;;;;;;5089375;28;20142;-72
2021/04/12 12:39:54;;;;;;;1.45;0.73;;;13.00;53.60;;;;;;5091103;28;20090;-67
2021/04/12 12:42:20;;;;;;;2.08;0.70;;;13.00;52.80;;;;;;5092863;28;20029;-72
2021/04/12 12:44:48;;;;;;;3.00;0.73;;;13.30;55.40;;;;;;5093818;28;20055;-76
2021/04/12 12:47:17;;;;;;;3.00;0.68;;;13.60;53.80;;;;;;5092432;28;20117;-72
2021/04/12 12:49:59;;;;;;;1.23;0.60;;;13.80;52.80;;;;;;5072269;28;20040;-72
2021/04/12 12:52:27;;;;;;;;;;;13.90;51.20;;;;;;5092150;28;20036;-71
2021/04/12 12:54:53;;;;;;;1.38;0.70;;;13.90;50.20;;;;;;5091453;28;19919;-72
2021/04/12 12:57:35;;;;;;;1.92;1.00;;;13.80;51.50;;;;;;5091353;28;20059;-72
2021/04/12 13:00:07;;;;;;;1.52;0.77;;;13.70;50.10;;;;;;5091713;28;20046;-73
2021/04/12 13:02:36;;;;;;;;;;;13.70;50.00;;;;;;5093407;28;20052;-72
2021/04/12 13:05:04;;;;;;;1.95;0.90;;;13.60;48.90;;;;;;5106493;28;20023;-72
2021/04/12 13:07:30;;;;;;;3.33;0.93;;;13.50;50.00;;;;;;5111064;27;20051;-71
2021/04/12 13:10:20;;;;;;;1.77;0.90;;;13.40;49.80;;;;;;5092376;28;20111;-72
2021/04/12 13:12:48;;;;;;;3.25;0.77;;;13.30;49.80;;;;;;5088162;28;20112;-69
2021/04/12 13:15:20;;;;;;;3.13;0.70;;;13.20;50.20;;;;;;5080944;28;20441;-70
2021/04/12 13:17:46;;;;;;;0.82;0.40;;;13.10;50.10;;;;;;5092140;28;21649;-69
2021/04/12 13:20:29;;;;;;;1.88;0.50;;;13.20;50.30;;;;;;5093164;28;20453;-69
2021/04/12 13:23:13;;;;;;;2.47;0.75;;;13.30;50.20;;;;;;5074925;28;20415;-71
2021/04/12 13:25:41;;;;;;;4.38;1.40;;;13.30;50.60;;;;;;5071958;28;20503;-70
2021/04/12 13:28:13;;;;;;;3.00;1.20;;;13.50;51.80;;;;;;5090187;28;20135;-72
2021/04/12 13:30:46;;;;;;;1.85;0.70;;;13.70;51.00;;;;;;5092373;28;20408;-69
2021/04/12 13:33:25;;;;;;;3.33;0.80;;;13.90;50.20;;;;;;5090071;28;20028;-71
2021/04/12 13:35:55;;;;;;;1.85;0.80;;;14.10;49.30;;;;;;5071733;28;20133;-71
2021/04/12 13:38:23;;;;;;;1.70;0.70;;;14.10;48.50;;;;;;5057900;28;20052;-70
2021/04/12 13:40:55;;;;;;;2.75;0.80;;;14.00;47.50;;;;;;5071581;28;20054;-71
2021/04/12 13:43:22;;;;;;;2.33;0.90;;;13.80;47.20;;;;;;5092198;28;20042;-70
2021/04/12 13:45:48;;;;;;;1.85;0.80;;;13.80;46.30;;;;;;5087737;28;20510;-71
2021/04/12 13:48:25;;;;;;;3.67;0.90;;;13.90;46.20;;;;;;5088344;28;20040;-71
2021/04/12 13:51:24;;;;;;;1.38;0.40;;;13.90;45.30;;;;;;5072499;28;20036;-72
2021/04/12 13:53:53;;;;;;;1.58;0.70;;;13.90;44.40;;;;;;5084715;28;20048;-72
2021/04/12 13:56:23;;;;;;;2.55;0.60;;;13.80;45.70;;;;;;5073243;28;20119;-71
2021/04/12 13:59:01;;;;;;;3.72;0.70;;;13.70;45.60;;;;;;5087134;28;20043;-72
2021/04/12 14:01:38;;;;;;;1.75;1.00;;;13.50;44.60;;;;;;5072020;28;20048;-71
2021/04/12 14:04:16;;;;;;;2.65;0.75;;;13.30;44.90;;;;;;5108875;27;20126;-71
2021/04/12 14:06:58;;;;;;;2.17;0.82;;;12.90;45.50;;;;;;5090313;28;20043;-70
2021/04/12 14:09:36;;;;;;;2.67;0.70;;;12.70;46.40;;;;;;5090952;28;20413;-69
2021/04/12 14:12:08;;;;;;;2.60;0.80;;;12.40;47.00;;;;;;5106180;27;20043;-74
2021/04/12 14:14:49;;;;;;;1.17;0.60;;;12.30;47.70;;;;;;5088954;28;20063;-69
2021/04/12 14:17:47;;;;;;;2.45;0.50;;;12.40;49.00;;;;;;5088948;28;20040;-71
2021/04/12 14:20:27;;;;;;;1.40;0.43;;;12.50;48.30;;;;;;5084370;28;20062;-72
2021/04/12 14:22:53;;;;;;;4.22;0.80;;;12.40;48.00;;;;;;5087452;28;20435;-73
2021/04/12 14:25:37;;;;;;;1.67;0.52;;;12.20;47.90;;;;;;5089498;28;20040;-74
2021/04/12 14:28:25;;;;;;;4.05;1.10;;;12.10;47.80;;;;;;5055721;28;20068;-71